createdAt,value
2022-12-15T00:00:56.442Z,65.70
2022-12-15T00:03:47.377Z,55.20
2022-12-15T00:06:34.987Z,53.60
2022-12-15T00:09:30.679Z,57.00
2022-12-15T00:12:19.803Z,63.00
2022-12-15T00:15:08.274Z,60.40
2022-12-15T00:17:56.286Z,55.30
2022-12-15T00:20:44.752Z,60.30
2022-12-15T00:23:32.549Z,57.60
2022-12-15T00:26:20.499Z,53.30
2022-12-15T00:29:08.043Z,62.90
2022-12-15T00:31:56.464Z,57.30
2022-12-15T00:34:45.183Z,52.70
2022-12-15T00:37:33.473Z,51.40
2022-12-15T00:40:05.545Z,56.70
2022-12-15T00:42:36.986Z,51.70
2022-12-15T00:45:07.192Z,55.00
2022-12-15T00:47:38.342Z,54.10
2022-12-15T00:50:28.247Z,49.60
2022-12-15T00:53:16.910Z,47.50
2022-12-15T00:56:06.596Z,50.60
2022-12-15T00:58:56.545Z,49.90
2022-12-15T01:01:45.920Z,48.30
2022-12-15T01:04:38.703Z,63.50
2022-12-15T01:07:28.207Z,53.80
2022-12-15T01:10:17.645Z,51.80
2022-12-15T01:13:06.910Z,47.30
2022-12-15T01:15:59.745Z,59.90
2022-12-15T01:18:49.618Z,52.70
2022-12-15T01:21:24.295Z,51.60
2022-12-15T01:23:56.193Z,51.30
2022-12-15T01:26:26.434Z,50.90
2022-12-15T01:31:26.253Z,56.30
2022-12-15T01:33:57.954Z,54.10
2022-12-15T01:36:27.925Z,57.00
2022-12-15T01:38:58.405Z,50.50
2022-12-15T01:41:30.410Z,50.00
2022-12-15T01:44:23.146Z,47.00
2022-12-15T01:46:58.695Z,48.30
2022-12-15T01:49:32.575Z,48.90
2022-12-15T01:52:09.549Z,40.90
2022-12-15T01:54:51.237Z,46.90
2022-12-15T01:57:28.746Z,51.80
2022-12-15T02:00:02.493Z,51.00
2022-12-15T02:02:39.927Z,53.40
2022-12-15T02:05:10.920Z,44.80
2022-12-15T02:07:40.995Z,53.80
2022-12-15T02:10:12.760Z,53.70
2022-12-15T02:12:50.518Z,54.90
2022-12-15T02:15:32.356Z,50.70
2022-12-15T02:18:35.167Z,48.10
2022-12-15T02:21:12.013Z,54.40
2022-12-15T02:23:51.350Z,44.30
2022-12-15T02:26:57.585Z,52.50
2022-12-15T02:29:49.916Z,46.10
2022-12-15T02:32:32.971Z,52.70
2022-12-15T02:35:10.881Z,50.60
2022-12-15T02:37:42.421Z,51.30
2022-12-15T02:40:12.493Z,48.70
2022-12-15T02:42:50.315Z,47.90
2022-12-15T02:45:25.359Z,47.40
2022-12-15T02:48:24.208Z,49.80
2022-12-15T02:51:28.223Z,57.20
2022-12-15T02:54:20.281Z,49.40
2022-12-15T02:57:21.913Z,44.10
2022-12-15T03:00:02.718Z,50.00
2022-12-15T03:02:35.123Z,49.60
2022-12-15T03:05:06.054Z,58.00
2022-12-15T03:07:36.916Z,52.60
2022-12-15T03:10:07.676Z,46.30
2022-12-15T03:12:36.911Z,52.10
2022-12-15T03:15:06.439Z,51.30
2022-12-15T03:17:36.896Z,42.20
2022-12-15T03:20:09.318Z,51.60
2022-12-15T03:22:38.988Z,47.60
2022-12-15T03:25:09.214Z,48.10
2022-12-15T03:27:39.611Z,48.30
2022-12-15T03:30:10.086Z,42.00
2022-12-15T03:32:40.203Z,50.90
2022-12-15T03:35:10.557Z,52.90
2022-12-15T03:37:40.912Z,46.90
2022-12-15T03:40:12.318Z,41.40
2022-12-15T03:42:51.743Z,38.30
2022-12-15T03:45:24.811Z,37.20
2022-12-15T03:47:55.046Z,36.80
2022-12-15T03:50:27.725Z,36.30
2022-12-15T03:53:00.240Z,39.70
2022-12-15T03:55:31.212Z,43.00
2022-12-15T03:58:01.252Z,37.40
2022-12-15T04:00:30.858Z,37.60
2022-12-15T04:03:00.161Z,38.60
2022-12-15T04:05:31.997Z,32.70
2022-12-15T04:08:03.286Z,47.60
2022-12-15T04:10:35.238Z,51.60
2022-12-15T04:13:08.521Z,50.00
2022-12-15T04:15:40.265Z,60.10
2022-12-15T04:18:11.109Z,63.50
2022-12-15T04:20:41.532Z,54.60
2022-12-15T04:23:10.505Z,50.00
2022-12-15T04:25:57.933Z,49.40
2022-12-15T04:28:46.086Z,49.00
2022-12-15T04:31:39.333Z,46.90
2022-12-15T04:34:34.240Z,41.30
2022-12-15T04:37:21.955Z,39.20
2022-12-15T04:40:12.359Z,43.00
2022-12-15T04:43:06.142Z,41.10
2022-12-15T04:45:54.233Z,42.90
2022-12-15T04:48:42.925Z,36.80
2022-12-15T04:51:30.660Z,45.20
2022-12-15T04:54:18.797Z,41.00
2022-12-15T04:57:06.437Z,43.20
2022-12-15T04:59:53.750Z,39.10
2022-12-15T05:02:41.659Z,43.30
2022-12-15T05:05:29.941Z,40.50
2022-12-15T05:08:18.284Z,33.90
2022-12-15T05:11:06.127Z,33.50
2022-12-15T05:13:53.533Z,40.00
2022-12-15T05:16:42.456Z,45.30
2022-12-15T05:19:30.125Z,47.80
2022-12-15T05:22:17.772Z,42.00
2022-12-15T05:25:05.385Z,47.40
2022-12-15T05:27:53.125Z,39.90
2022-12-15T05:30:41.437Z,38.20
2022-12-15T05:33:10.868Z,48.60
2022-12-15T05:35:39.964Z,48.70
2022-12-15T05:38:08.720Z,43.10
2022-12-15T05:40:38.477Z,40.50
2022-12-15T05:43:07.249Z,41.40
2022-12-15T05:45:36.237Z,34.90
2022-12-15T05:48:05.942Z,41.80
2022-12-15T05:50:34.635Z,45.20
2022-12-15T05:53:03.952Z,43.20
2022-12-15T05:55:33.245Z,40.40
2022-12-15T05:58:01.918Z,35.70
2022-12-15T06:00:30.773Z,34.80
2022-12-15T06:03:00.501Z,30.60
2022-12-15T06:05:29.621Z,28.00
2022-12-15T06:08:00.554Z,25.60
2022-12-15T06:10:29.333Z,34.10
2022-12-15T06:12:57.922Z,43.50
2022-12-15T06:15:27.069Z,48.70
2022-12-15T06:17:56.631Z,47.40
2022-12-15T06:20:25.201Z,49.80
2022-12-15T06:22:54.411Z,43.60
2022-12-15T06:25:23.189Z,48.60
2022-12-15T06:27:55.772Z,47.00
2022-12-15T06:30:27.327Z,48.40
2022-12-15T06:32:56.112Z,37.50
2022-12-15T06:35:24.904Z,42.90
2022-12-15T06:37:54.092Z,39.10
2022-12-15T06:40:22.882Z,44.20
2022-12-15T06:42:51.566Z,44.00
2022-12-15T06:45:20.251Z,47.40
2022-12-15T06:47:49.452Z,47.80
2022-12-15T06:50:18.448Z,42.60
2022-12-15T06:52:47.540Z,39.80
2022-12-15T06:55:16.220Z,35.40
2022-12-15T06:57:48.282Z,35.80
2022-12-15T07:00:17.272Z,28.30
2022-12-15T07:02:50.126Z,45.30
2022-12-15T07:05:19.670Z,66.70
2022-12-15T07:07:49.067Z,73.30
2022-12-15T07:10:18.280Z,70.30
2022-12-15T07:12:47.474Z,66.10
2022-12-15T07:15:17.290Z,57.70
2022-12-15T07:17:45.967Z,52.50
2022-12-15T07:20:14.648Z,53.00
2022-12-15T07:22:43.333Z,55.30
2022-12-15T07:25:12.329Z,49.20
2022-12-15T07:27:41.531Z,49.50
2022-12-15T07:30:11.442Z,52.80
2022-12-15T07:32:40.435Z,48.30
2022-12-15T07:35:10.250Z,49.80
2022-12-15T07:37:39.130Z,43.20
2022-12-15T07:40:09.039Z,39.00
2022-12-15T07:42:38.058Z,43.30
2022-12-15T07:45:07.755Z,40.50
2022-12-15T07:47:36.336Z,43.40
2022-12-15T07:50:05.433Z,44.30
2022-12-15T07:52:34.324Z,43.20
2022-12-15T07:55:03.004Z,44.60
2022-12-15T07:57:33.051Z,43.20
2022-12-15T08:00:05.800Z,43.90
2022-12-15T08:02:42.316Z,46.80
2022-12-15T08:05:11.483Z,44.50
2022-12-15T08:07:40.250Z,44.80
2022-12-15T08:10:09.760Z,42.10
2022-12-15T08:12:38.555Z,38.40
2022-12-15T08:15:08.098Z,40.30
2022-12-15T08:17:36.644Z,40.50
2022-12-15T08:20:09.910Z,38.70
2022-12-15T08:22:39.023Z,41.30
2022-12-15T08:25:08.229Z,51.60
2022-12-15T08:27:36.781Z,56.60
2022-12-15T08:30:06.411Z,53.20
2022-12-15T08:32:34.996Z,59.30
2022-12-15T08:35:03.985Z,52.20
2022-12-15T08:37:32.677Z,51.50
2022-12-15T08:40:03.332Z,54.40
2022-12-15T08:42:36.288Z,48.60
2022-12-15T08:45:06.190Z,48.90
2022-12-15T08:47:34.787Z,44.80
2022-12-15T08:50:03.680Z,45.50
2022-12-15T08:52:32.474Z,41.70
2022-12-15T08:55:01.360Z,44.20
2022-12-15T08:57:30.054Z,44.00
2022-12-15T08:59:59.448Z,45.20
2022-12-15T09:02:28.296Z,41.00
2022-12-15T09:04:57.433Z,45.00
2022-12-15T09:07:26.629Z,36.20
2022-12-15T09:09:55.724Z,30.30
2022-12-15T09:12:24.510Z,35.00
2022-12-15T09:14:53.197Z,35.70
2022-12-15T09:17:21.919Z,30.40
2022-12-15T09:19:50.771Z,35.20
2022-12-15T09:22:19.865Z,30.90
2022-12-15T09:24:49.170Z,27.70
2022-12-15T09:27:18.165Z,30.00
2022-12-15T09:29:46.945Z,24.00
2022-12-15T09:32:15.632Z,27.30
2022-12-15T09:34:44.519Z,26.10
2022-12-15T09:37:13.721Z,24.80
2022-12-15T09:39:42.411Z,25.90
2022-12-15T09:42:29.631Z,23.10
2022-12-15T09:45:06.093Z,24.50
2022-12-15T09:48:09.288Z,25.40
2022-12-15T09:50:40.097Z,26.10
2022-12-15T09:53:45.597Z,28.50
2022-12-15T09:56:19.683Z,31.20
2022-12-15T09:58:51.034Z,25.80
2022-12-15T10:01:39.127Z,20.50
2022-12-15T10:04:34.443Z,23.50
2022-12-15T10:07:36.166Z,26.10
2022-12-15T10:10:21.617Z,27.10
2022-12-15T10:13:01.775Z,25.10
2022-12-15T10:15:45.883Z,29.20
2022-12-15T10:18:26.995Z,25.70
2022-12-15T10:21:02.397Z,26.90
2022-12-15T10:23:37.090Z,38.50
2022-12-15T10:26:26.027Z,40.90
2022-12-15T10:29:30.109Z,44.50
2022-12-15T10:32:05.634Z,36.00
2022-12-15T10:34:38.334Z,36.10
2022-12-15T10:37:14.017Z,34.40
2022-12-15T10:39:45.792Z,32.20
2022-12-15T10:42:26.766Z,37.30
2022-12-15T10:44:57.996Z,31.60
2022-12-15T10:47:29.539Z,35.40
2022-12-15T10:53:40.341Z,27.10
2022-12-15T10:56:09.741Z,28.20
2022-12-15T10:58:52.047Z,28.90
2022-12-15T11:01:32.935Z,27.50
2022-12-15T11:04:01.855Z,28.70
2022-12-15T11:06:33.479Z,23.20
2022-12-15T11:09:21.805Z,28.00
2022-12-15T11:12:12.360Z,24.80
2022-12-15T11:14:51.617Z,29.40
2022-12-15T11:17:23.299Z,29.80
2022-12-15T11:20:21.783Z,28.80
2022-12-15T11:23:01.016Z,29.40
2022-12-15T11:25:39.019Z,30.70
2022-12-15T11:28:19.992Z,30.30
2022-12-15T11:31:04.036Z,27.50
2022-12-15T11:33:33.320Z,29.90
2022-12-15T11:36:17.685Z,26.60
2022-12-15T11:39:32.355Z,28.30
2022-12-15T11:42:06.255Z,25.70
2022-12-15T11:45:01.262Z,24.00
2022-12-15T11:47:49.408Z,24.60
2022-12-15T11:50:44.716Z,22.60
2022-12-15T11:53:41.764Z,20.90
2022-12-15T11:56:32.676Z,18.20
2022-12-15T11:59:19.495Z,18.00
2022-12-15T12:02:25.947Z,18.90
2022-12-15T12:05:42.775Z,20.00
2022-12-15T12:08:17.296Z,19.50
2022-12-15T12:11:01.183Z,19.70
2022-12-15T12:13:50.292Z,15.90
2022-12-15T12:16:46.215Z,15.50
2022-12-15T12:19:28.036Z,13.80
2022-12-15T12:22:04.068Z,12.10
2022-12-15T12:24:40.444Z,13.40
2022-12-15T12:27:39.838Z,13.60
2022-12-15T12:30:15.808Z,11.60
2022-12-15T12:33:03.014Z,10.10
2022-12-15T12:35:41.636Z,11.80
2022-12-15T12:38:12.281Z,10.70
2022-12-15T12:40:41.029Z,9.40
2022-12-15T12:43:14.208Z,9.90
2022-12-15T12:45:54.511Z,11.20
2022-12-15T12:48:35.167Z,9.10
2022-12-15T12:51:28.120Z,8.90
2022-12-15T12:53:58.857Z,7.80
2022-12-15T12:56:38.399Z,9.40
2022-12-15T12:59:29.527Z,7.10
2022-12-15T13:02:31.597Z,7.40
2022-12-15T13:05:24.395Z,7.10
2022-12-15T13:08:17.277Z,7.40
2022-12-15T13:10:48.122Z,6.80
2022-12-15T13:13:29.349Z,6.30
2022-12-15T13:16:13.439Z,6.00
2022-12-15T13:19:03.811Z,5.60
2022-12-15T13:21:45.316Z,8.10
2022-12-15T13:24:46.569Z,8.40
2022-12-15T13:27:20.187Z,7.70
2022-12-15T13:30:16.304Z,7.20
2022-12-15T13:32:53.492Z,7.40
2022-12-15T13:35:34.864Z,7.80
2022-12-15T13:38:04.646Z,10.10
2022-12-15T13:43:26.733Z,8.60
2022-12-15T13:46:03.536Z,8.00
2022-12-15T13:48:39.428Z,7.60
2022-12-15T13:51:43.298Z,7.50
2022-12-15T13:54:19.825Z,7.90
2022-12-15T13:57:13.387Z,9.00
2022-12-15T13:59:51.000Z,12.10
2022-12-15T14:02:28.391Z,12.80
2022-12-15T14:05:12.231Z,12.30
2022-12-15T14:07:54.809Z,11.40
2022-12-15T14:10:44.209Z,11.00
2022-12-15T14:13:20.070Z,16.40
2022-12-15T14:16:04.457Z,13.20
2022-12-15T14:18:39.469Z,11.70
2022-12-15T14:21:20.325Z,10.90
2022-12-15T14:26:38.690Z,10.10
2022-12-15T14:29:07.375Z,11.40
2022-12-15T14:31:37.766Z,8.80
2022-12-15T14:34:15.700Z,12.00
2022-12-15T14:36:46.232Z,12.00
2022-12-15T14:39:42.069Z,13.20
2022-12-15T14:42:20.113Z,14.00
2022-12-15T14:44:51.397Z,16.20
2022-12-15T14:47:36.064Z,16.60
2022-12-15T14:50:10.393Z,17.50
2022-12-15T14:52:44.695Z,15.60
2022-12-15T14:55:31.922Z,14.20
2022-12-15T14:58:01.839Z,22.00
2022-12-15T15:00:34.822Z,16.80
2022-12-15T15:03:10.317Z,31.20
2022-12-15T15:03:14.309Z,10.20
2022-12-15T15:03:20.106Z,18.70
2022-12-15T15:05:55.152Z,19.90
2022-12-15T15:08:35.852Z,18.50
2022-12-15T15:11:36.260Z,15.40
2022-12-15T15:14:43.479Z,23.90
2022-12-15T15:17:17.234Z,25.90
2022-12-15T15:19:57.691Z,40.50
2022-12-15T15:22:42.134Z,66.10
2022-12-15T15:25:41.717Z,77.80
2022-12-15T15:28:35.838Z,57.60
2022-12-15T15:31:40.399Z,64.40
2022-12-15T15:34:11.699Z,78.80
2022-12-15T15:36:41.202Z,68.90
2022-12-15T15:39:14.294Z,92.70
2022-12-15T15:41:43.183Z,57.40
2022-12-15T15:44:14.882Z,33.10
2022-12-15T15:46:52.327Z,28.40
2022-12-15T15:49:24.646Z,35.30
2022-12-15T15:51:56.256Z,28.20
2022-12-15T15:54:29.449Z,29.90
2022-12-15T15:56:58.032Z,31.50
2022-12-15T15:59:27.226Z,47.10
2022-12-15T16:01:56.287Z,40.30
2022-12-15T16:04:25.519Z,45.20
2022-12-15T16:06:54.411Z,49.30
2022-12-15T16:09:25.117Z,49.90
2022-12-15T16:11:54.033Z,43.00
2022-12-15T16:14:22.615Z,47.70
2022-12-15T16:16:54.169Z,36.60
2022-12-15T16:19:24.185Z,40.00
2022-12-15T16:21:53.483Z,38.40
2022-12-15T16:24:22.068Z,35.20
2022-12-15T16:26:51.373Z,28.20
2022-12-15T16:29:22.085Z,44.10
2022-12-15T16:31:50.598Z,40.00
2022-12-15T16:34:24.928Z,47.40
2022-12-15T16:36:53.376Z,62.10
2022-12-15T16:39:27.491Z,75.60
2022-12-15T16:41:56.902Z,65.40
2022-12-15T16:44:27.220Z,62.20
2022-12-15T16:49:25.511Z,61.60
2022-12-15T16:51:54.612Z,60.70
2022-12-15T16:54:26.468Z,70.80
2022-12-15T16:56:57.681Z,60.60
2022-12-15T16:59:35.663Z,58.00
2022-12-15T17:02:39.635Z,51.60
2022-12-15T17:05:09.643Z,56.80
2022-12-15T17:07:39.451Z,74.30
2022-12-15T17:10:08.451Z,61.60
2022-12-15T17:12:37.545Z,64.30
2022-12-15T17:15:24.148Z,61.90
2022-12-15T17:17:54.861Z,57.50
2022-12-15T17:20:29.406Z,56.50
2022-12-15T17:23:05.090Z,54.80
2022-12-15T17:28:33.569Z,43.40
2022-12-15T17:31:02.481Z,37.10
2022-12-15T17:33:34.065Z,40.40
2022-12-15T17:36:15.891Z,37.40
2022-12-15T17:38:44.580Z,31.00
2022-12-15T17:41:34.979Z,32.10
2022-12-15T17:44:31.777Z,30.40
2022-12-15T17:46:54.736Z,28.70
2022-12-15T17:49:23.353Z,24.80
2022-12-15T17:51:51.833Z,35.70
2022-12-15T17:54:20.630Z,34.70
2022-12-15T17:56:50.231Z,31.40
2022-12-15T17:59:20.755Z,28.30
2022-12-15T18:01:49.421Z,22.20
2022-12-15T18:04:18.052Z,21.90
2022-12-15T18:06:47.016Z,31.90
2022-12-15T18:09:17.751Z,37.10
2022-12-15T18:11:47.152Z,56.90
2022-12-15T18:14:19.731Z,29.70
2022-12-15T18:16:48.656Z,25.80
2022-12-15T18:19:17.306Z,27.10
2022-12-15T18:21:45.890Z,28.50
2022-12-15T18:24:17.595Z,28.20
2022-12-15T18:26:46.127Z,26.50
2022-12-15T18:29:18.333Z,25.40
2022-12-15T18:31:48.614Z,24.50
2022-12-15T18:36:47.422Z,20.40
2022-12-15T18:39:26.069Z,17.60
2022-12-15T18:41:55.133Z,16.40
2022-12-15T18:44:29.245Z,21.40
2022-12-15T18:46:57.794Z,19.90
2022-12-15T18:49:26.516Z,19.10
2022-12-15T18:51:55.099Z,19.00
2022-12-15T18:54:26.550Z,16.60
2022-12-15T18:56:54.983Z,18.00
2022-12-15T18:59:23.614Z,16.20
2022-12-15T19:01:52.466Z,14.90
2022-12-15T19:04:21.292Z,15.80
2022-12-15T19:06:50.490Z,15.60
2022-12-15T19:09:23.476Z,16.30
2022-12-15T19:12:17.937Z,15.00
2022-12-15T19:14:50.258Z,13.90
2022-12-15T19:17:40.327Z,14.20
2022-12-15T19:20:39.317Z,13.40
2022-12-15T19:23:08.106Z,21.50
2022-12-15T19:25:36.901Z,15.00
2022-12-15T19:28:25.954Z,16.20
2022-12-15T19:30:54.541Z,13.10
2022-12-15T19:33:23.224Z,19.10
2022-12-15T19:35:52.324Z,20.30
2022-12-15T19:38:28.175Z,37.90
2022-12-15T19:41:01.171Z,40.10
2022-12-15T19:43:30.010Z,28.90
2022-12-15T19:45:59.081Z,35.10
2022-12-15T19:48:27.932Z,34.30
2022-12-15T19:50:56.726Z,20.00
2022-12-15T19:53:28.701Z,24.60
2022-12-15T19:56:01.725Z,32.60
2022-12-15T19:58:32.176Z,35.60
2022-12-15T20:01:14.868Z,30.30
2022-12-15T20:03:45.732Z,27.60
2022-12-15T20:06:16.174Z,33.20
2022-12-15T20:08:48.137Z,38.60
2022-12-15T20:11:22.460Z,41.20
2022-12-15T20:13:52.060Z,63.30
2022-12-15T20:16:21.773Z,53.30
2022-12-15T20:18:52.832Z,70.40
2022-12-15T20:21:23.082Z,67.70
2022-12-15T20:28:53.295Z,75.80
2022-12-15T20:33:52.093Z,75.20
2022-12-15T20:36:24.814Z,79.10
2022-12-15T20:38:54.486Z,72.30
2022-12-15T20:41:28.020Z,66.50
2022-12-15T20:43:58.131Z,61.40
2022-12-15T20:48:57.220Z,53.20
2022-12-15T20:51:31.639Z,55.10
2022-12-15T20:54:03.129Z,53.50
2022-12-15T20:56:31.977Z,62.40
2022-12-15T20:59:00.458Z,61.10
2022-12-15T21:01:33.652Z,44.20
2022-12-15T21:04:18.510Z,38.20
2022-12-15T21:06:52.820Z,29.30
2022-12-15T21:09:23.967Z,27.00
2022-12-15T21:11:54.667Z,25.30
2022-12-15T21:14:24.740Z,22.20
2022-12-15T21:16:53.500Z,25.00
2022-12-15T21:19:22.985Z,24.40
2022-12-15T21:21:55.115Z,21.80
2022-12-15T21:24:27.413Z,17.80
2022-12-15T21:26:56.554Z,19.90
2022-12-15T21:29:28.127Z,18.00
2022-12-15T21:31:56.577Z,20.90
2022-12-15T21:34:25.263Z,22.40
2022-12-15T21:36:55.229Z,21.20
2022-12-15T21:39:32.875Z,23.30
2022-12-15T21:42:08.726Z,23.40
2022-12-15T21:44:37.415Z,24.60
2022-12-15T21:47:25.951Z,27.10
2022-12-15T21:49:55.111Z,25.50
2022-12-15T21:52:27.548Z,24.30
2022-12-15T21:54:56.329Z,23.70
2022-12-15T21:57:25.019Z,24.20
2022-12-15T21:59:55.396Z,22.70
2022-12-15T22:02:27.527Z,25.10
2022-12-15T22:04:56.392Z,27.50
2022-12-15T22:07:25.280Z,25.80
2022-12-15T22:09:54.170Z,24.00
2022-12-15T22:12:24.907Z,24.20
2022-12-15T22:14:53.598Z,28.70
2022-12-15T22:17:22.893Z,25.20
2022-12-15T22:19:51.580Z,24.20
2022-12-15T22:22:21.406Z,29.90
2022-12-15T22:24:50.175Z,24.70
2022-12-15T22:27:21.802Z,24.50
2022-12-15T22:29:50.943Z,24.30
2022-12-15T22:32:20.129Z,29.30
2022-12-15T22:34:49.031Z,33.30
2022-12-15T22:37:18.004Z,28.10
2022-12-15T22:39:46.907Z,25.70
2022-12-15T22:42:18.151Z,32.60
2022-12-15T22:44:47.222Z,35.40
2022-12-15T22:47:16.035Z,36.10
2022-12-15T22:49:45.434Z,32.50
2022-12-15T22:52:19.618Z,33.40
2022-12-15T22:54:49.046Z,33.90
2022-12-15T22:57:24.296Z,40.90
2022-12-15T23:00:09.327Z,37.20
2022-12-15T23:02:42.628Z,34.30
2022-12-15T23:05:15.379Z,37.90
2022-12-15T23:07:45.330Z,35.40
2022-12-15T23:10:35.737Z,37.10
2022-12-15T23:13:05.969Z,33.30
2022-12-15T23:15:54.627Z,40.00
2022-12-15T23:18:24.540Z,28.70
2022-12-15T23:20:54.722Z,32.80
2022-12-15T23:23:24.501Z,32.70
2022-12-15T23:25:53.780Z,30.80
2022-12-15T23:28:23.371Z,35.70
2022-12-15T23:30:54.725Z,34.40
2022-12-15T23:33:25.607Z,44.20
2022-12-15T23:35:56.854Z,31.50
2022-12-15T23:38:27.071Z,33.40
2022-12-15T23:40:57.771Z,29.20
2022-12-15T23:43:28.256Z,31.30
2022-12-15T23:46:06.003Z,44.00
2022-12-15T23:48:37.513Z,44.30
2022-12-15T23:51:11.528Z,53.30
2022-12-15T23:53:41.456Z,43.60
2022-12-15T23:56:11.776Z,48.70
